createdAt,value
2022-09-14T00:01:45.706Z,5.03
2022-09-14T00:04:16.991Z,6.60
2022-09-14T00:06:46.169Z,5.20
2022-09-14T00:09:16.879Z,6.00
2022-09-14T00:11:45.447Z,4.18
2022-09-14T00:14:13.973Z,5.88
2022-09-14T00:16:43.700Z,2.63
2022-09-14T00:19:18.657Z,3.53
2022-09-14T00:21:47.350Z,4.20
2022-09-14T00:24:15.637Z,3.42
2022-09-14T00:26:43.850Z,4.05
2022-09-14T00:29:12.401Z,7.93
2022-09-14T00:31:41.641Z,6.38
2022-09-14T00:34:13.544Z,5.10
2022-09-14T00:36:46.436Z,3.88
2022-09-14T00:39:15.459Z,5.18
2022-09-14T00:41:45.208Z,6.68
2022-09-14T00:44:46.812Z,4.40
2022-09-14T00:47:16.954Z,4.07
2022-09-14T00:49:46.576Z,7.63
2022-09-14T00:52:21.478Z,7.80
2022-09-14T00:54:52.572Z,8.00
2022-09-14T00:57:21.545Z,5.38
2022-09-14T00:59:52.923Z,8.77
2022-09-14T01:02:24.741Z,6.55
2022-09-14T01:04:53.813Z,6.63
2022-09-14T01:07:38.387Z,8.63
2022-09-14T01:10:20.752Z,8.07
2022-09-14T01:13:03.008Z,6.55
2022-09-14T01:15:40.189Z,5.65
2022-09-14T01:18:16.956Z,7.05
2022-09-14T01:20:48.710Z,9.13
2022-09-14T01:23:22.201Z,5.18
2022-09-14T01:26:21.395Z,3.55
2022-09-14T01:28:55.945Z,7.82
2022-09-14T01:31:32.256Z,6.53
2022-09-14T01:34:10.094Z,4.25
2022-09-14T01:36:41.628Z,5.93
2022-09-14T01:39:11.553Z,7.75
2022-09-14T01:41:42.371Z,6.25
2022-09-14T01:44:17.804Z,8.30
2022-09-14T01:46:48.646Z,5.57
2022-09-14T01:49:20.263Z,4.70
2022-09-14T01:51:51.475Z,7.00
2022-09-14T01:54:24.570Z,5.60
2022-09-14T01:56:56.825Z,9.13
2022-09-14T01:59:29.623Z,15.57
2022-09-14T02:02:02.821Z,6.22
2022-09-14T02:04:38.721Z,10.35
2022-09-14T02:07:07.733Z,6.28
2022-09-14T02:09:36.061Z,4.80
2022-09-14T02:12:04.816Z,3.38
2022-09-14T02:14:34.573Z,5.57
2022-09-14T02:17:03.500Z,6.03
2022-09-14T02:19:36.762Z,4.57
2022-09-14T02:22:05.504Z,5.72
2022-09-14T02:24:33.985Z,9.65
2022-09-14T02:27:03.479Z,7.95
2022-09-14T02:29:32.604Z,7.78
2022-09-14T02:32:12.600Z,9.75
2022-09-14T02:34:53.273Z,6.55
2022-09-14T02:37:31.591Z,4.18
2022-09-14T02:40:07.482Z,3.10
2022-09-14T02:42:40.982Z,3.95
2022-09-14T02:45:19.438Z,6.13
2022-09-14T02:47:56.481Z,7.72
2022-09-14T02:50:32.458Z,5.95
2022-09-14T02:53:06.362Z,7.60
2022-09-14T02:55:39.409Z,7.03
2022-09-14T02:58:09.888Z,4.07
2022-09-14T03:00:40.425Z,6.85
2022-09-14T03:03:12.725Z,7.28
2022-09-14T03:05:41.485Z,7.85
2022-09-14T03:08:11.803Z,4.72
2022-09-14T03:10:42.916Z,7.95
2022-09-14T03:13:11.775Z,7.63
2022-09-14T03:15:40.526Z,3.80
2022-09-14T03:18:14.261Z,8.77
2022-09-14T03:20:43.643Z,7.75
2022-09-14T03:23:13.015Z,10.23
2022-09-14T03:25:43.373Z,4.93
2022-09-14T03:28:12.946Z,5.95
2022-09-14T03:30:41.227Z,8.50
2022-09-14T03:33:10.989Z,8.35
2022-09-14T03:35:40.225Z,6.63
2022-09-14T03:38:08.676Z,7.82
2022-09-14T03:40:36.936Z,6.25
2022-09-14T03:43:05.326Z,5.45
2022-09-14T03:45:33.526Z,5.95
2022-09-14T03:48:01.752Z,4.90
2022-09-14T03:50:31.384Z,11.27
2022-09-14T03:52:59.705Z,7.40
2022-09-14T03:55:27.971Z,5.95
2022-09-14T03:57:57.003Z,5.55
2022-09-14T04:00:25.356Z,8.30
2022-09-14T04:02:53.668Z,5.30
2022-09-14T04:05:22.209Z,6.35
2022-09-14T04:07:51.960Z,9.23
2022-09-14T04:10:20.224Z,7.35
2022-09-14T04:12:48.715Z,3.83
2022-09-14T04:15:16.937Z,2.17
2022-09-14T04:17:45.303Z,11.23
2022-09-14T04:20:13.735Z,11.93
2022-09-14T04:22:42.090Z,11.88
2022-09-14T04:25:11.762Z,11.05
2022-09-14T04:27:40.162Z,9.65
2022-09-14T04:30:09.212Z,6.82
2022-09-14T04:32:37.478Z,9.50
2022-09-14T04:35:06.228Z,5.55
2022-09-14T04:37:34.734Z,4.20
2022-09-14T04:40:03.412Z,2.75
2022-09-14T04:42:33.119Z,6.05
2022-09-14T04:45:01.436Z,4.45
2022-09-14T04:47:30.127Z,3.17
2022-09-14T04:49:58.540Z,3.63
2022-09-14T04:52:26.747Z,6.30
2022-09-14T04:54:54.981Z,3.22
2022-09-14T04:57:23.264Z,3.05
2022-09-14T04:59:52.910Z,4.35
2022-09-14T05:02:21.278Z,6.22
2022-09-14T05:04:50.161Z,2.95
2022-09-14T05:07:18.404Z,5.40
2022-09-14T05:09:46.688Z,5.55
2022-09-14T05:12:14.876Z,4.75
2022-09-14T05:14:43.144Z,3.42
2022-09-14T05:17:12.746Z,8.05
2022-09-14T05:19:41.040Z,6.50
2022-09-14T05:22:09.345Z,2.58
2022-09-14T05:24:37.609Z,3.45
2022-09-14T05:27:05.889Z,4.13
2022-09-14T05:29:34.104Z,3.78
2022-09-14T05:32:02.308Z,2.45
2022-09-14T05:34:32.003Z,4.68
2022-09-14T05:37:00.207Z,3.60
2022-09-14T05:39:28.505Z,7.60
2022-09-14T05:41:56.681Z,3.53
2022-09-14T05:44:24.968Z,4.63
2022-09-14T05:46:53.304Z,6.03
2022-09-14T05:49:21.609Z,4.15
2022-09-14T05:51:51.178Z,5.40
2022-09-14T05:54:19.652Z,3.60
2022-09-14T05:56:48.332Z,5.50
2022-09-14T05:59:16.787Z,4.13
2022-09-14T06:01:45.031Z,3.72
2022-09-14T06:04:14.312Z,5.78
2022-09-14T06:06:49.341Z,4.57
2022-09-14T06:09:33.290Z,4.82
2022-09-14T06:12:01.658Z,7.93
2022-09-14T06:14:29.873Z,5.70
2022-09-14T06:17:00.933Z,3.97
2022-09-14T06:19:29.215Z,6.13
2022-09-14T06:21:57.404Z,2.75
2022-09-14T06:24:25.708Z,3.63
2022-09-14T06:26:55.276Z,7.82
2022-09-14T06:29:23.689Z,2.95
2022-09-14T06:31:51.949Z,3.63
2022-09-14T06:34:20.402Z,5.68
2022-09-14T06:36:49.058Z,3.33
2022-09-14T06:39:17.740Z,5.78
2022-09-14T06:41:46.233Z,5.47
2022-09-14T06:44:21.882Z,5.75
2022-09-14T06:46:50.097Z,5.35
2022-09-14T06:49:20.885Z,4.95
2022-09-14T06:51:49.252Z,5.07
2022-09-14T06:54:19.779Z,3.80
2022-09-14T06:56:48.603Z,3.03
2022-09-14T06:59:18.382Z,3.88
2022-09-14T07:01:49.408Z,4.45
2022-09-14T07:04:17.980Z,4.60
2022-09-14T07:06:48.907Z,5.72
2022-09-14T07:09:19.018Z,2.88
2022-09-14T07:11:47.716Z,5.15
2022-09-14T07:14:16.764Z,3.60
2022-09-14T07:16:44.992Z,3.85
2022-09-14T07:19:16.364Z,3.35
2022-09-14T07:21:44.878Z,6.47
2022-09-14T07:24:15.025Z,5.78
2022-09-14T07:26:43.990Z,3.80
2022-09-14T07:29:14.761Z,4.72
2022-09-14T07:31:44.941Z,4.50
2022-09-14T07:34:15.457Z,5.60
2022-09-14T07:36:44.123Z,4.90
2022-09-14T07:39:15.349Z,3.47
2022-09-14T07:41:44.612Z,3.25
2022-09-14T07:44:15.903Z,5.47
2022-09-14T07:46:46.064Z,2.97
2022-09-14T07:49:16.528Z,2.90
2022-09-14T07:51:45.544Z,3.80
2022-09-14T07:54:16.455Z,2.63
2022-09-14T07:56:45.600Z,2.58
2022-09-14T08:02:04.017Z,2.80
2022-09-14T08:04:33.604Z,5.28
2022-09-14T08:07:02.148Z,5.70
2022-09-14T08:09:30.805Z,2.85
2022-09-14T08:11:59.225Z,4.57
2022-09-14T08:14:27.404Z,1.75
2022-09-14T08:16:55.729Z,1.80
2022-09-14T08:19:24.906Z,2.20
2022-09-14T08:21:55.560Z,5.72
2022-09-14T08:24:23.835Z,6.03
2022-09-14T08:26:52.547Z,3.65
2022-09-14T08:29:21.260Z,7.07
2022-09-14T08:31:51.745Z,6.13
2022-09-14T08:34:21.102Z,4.40
2022-09-14T08:36:49.307Z,6.43
2022-09-14T08:39:19.385Z,3.47
2022-09-14T08:41:52.820Z,3.47
2022-09-14T08:44:27.191Z,5.38
2022-09-14T08:47:00.509Z,7.25
2022-09-14T08:49:43.973Z,3.97
2022-09-14T08:52:22.242Z,5.78
2022-09-14T08:54:55.813Z,1.90
2022-09-14T08:57:30.934Z,2.35
2022-09-14T09:00:06.686Z,2.08
2022-09-14T09:02:49.669Z,3.50
2022-09-14T09:05:31.119Z,6.00
2022-09-14T09:08:04.239Z,2.95
2022-09-14T09:10:35.012Z,2.95
2022-09-14T09:13:06.993Z,6.35
2022-09-14T09:15:41.317Z,5.15
2022-09-14T09:18:13.868Z,3.15
2022-09-14T09:20:46.184Z,3.53
2022-09-14T09:23:16.858Z,2.55
2022-09-14T09:25:55.342Z,3.58
2022-09-14T09:28:24.974Z,2.90
2022-09-14T09:30:54.099Z,4.50
2022-09-14T09:33:29.588Z,1.95
2022-09-14T09:36:18.785Z,1.38
2022-09-14T09:38:47.080Z,4.55
2022-09-14T09:41:20.886Z,9.90
2022-09-14T09:44:00.553Z,5.22
2022-09-14T09:46:30.305Z,2.72
2022-09-14T09:48:59.588Z,6.82
2022-09-14T09:51:30.739Z,4.35
2022-09-14T09:54:03.527Z,2.85
2022-09-14T09:56:36.997Z,2.30
2022-09-14T09:59:22.037Z,4.43
2022-09-14T10:01:50.348Z,9.30
2022-09-14T10:04:21.393Z,2.95
2022-09-14T10:06:51.619Z,3.33
2022-09-14T10:09:23.672Z,2.97
2022-09-14T10:12:00.791Z,4.35
2022-09-14T10:14:32.579Z,6.82
2022-09-14T10:17:09.443Z,4.80
2022-09-14T10:19:38.226Z,4.22
2022-09-14T10:22:25.729Z,2.65
2022-09-14T10:24:57.722Z,2.53
2022-09-14T10:27:41.036Z,2.72
2022-09-14T10:30:21.011Z,3.97
2022-09-14T10:32:56.493Z,11.75
2022-09-14T10:35:34.080Z,12.55
2022-09-14T10:38:16.100Z,4.93
2022-09-14T10:40:50.293Z,4.05
2022-09-14T10:43:27.304Z,5.82
2022-09-14T10:46:02.184Z,4.53
2022-09-14T10:48:54.444Z,4.78
2022-09-14T10:51:46.594Z,3.15
2022-09-14T10:54:34.484Z,7.45
2022-09-14T10:57:15.172Z,3.75
2022-09-14T10:59:52.984Z,6.70
2022-09-14T11:03:05.869Z,6.78
2022-09-14T11:05:39.324Z,8.48
2022-09-14T11:08:22.950Z,6.28
2022-09-14T11:11:10.679Z,7.65
2022-09-14T11:13:52.235Z,9.15
2022-09-14T11:16:31.695Z,10.95
2022-09-14T11:19:08.026Z,6.65
2022-09-14T11:21:45.201Z,7.28
2022-09-14T11:24:21.441Z,7.70
2022-09-14T11:27:00.618Z,8.50
2022-09-14T11:29:33.631Z,6.32
2022-09-14T11:32:20.831Z,6.40
2022-09-14T11:34:56.236Z,12.52
2022-09-14T11:37:33.988Z,13.05
2022-09-14T11:40:10.313Z,6.78
2022-09-14T11:42:45.236Z,10.68
2022-09-14T11:45:22.200Z,7.22
2022-09-14T11:47:59.738Z,7.65
2022-09-14T11:50:32.873Z,10.05
2022-09-14T11:53:11.143Z,8.73
2022-09-14T11:55:43.947Z,9.75
2022-09-14T11:58:19.921Z,11.85
2022-09-14T12:01:05.089Z,13.40
2022-09-14T12:04:10.086Z,8.63
2022-09-14T12:07:05.479Z,11.45
2022-09-14T12:09:53.732Z,14.60
2022-09-14T12:12:40.069Z,13.80
2022-09-14T12:15:22.885Z,9.23
2022-09-14T12:17:52.662Z,17.05
2022-09-14T12:20:44.175Z,14.57
2022-09-14T12:23:27.080Z,12.80
2022-09-14T12:26:01.034Z,12.95
2022-09-14T12:28:47.901Z,15.35
2022-09-14T12:31:37.109Z,11.27
2022-09-14T12:34:27.181Z,10.50
2022-09-14T12:37:28.372Z,11.93
2022-09-14T12:40:36.341Z,12.68
2022-09-14T12:43:48.474Z,10.90
2022-09-14T12:46:42.238Z,10.90
2022-09-14T12:49:37.256Z,15.32
2022-09-14T12:52:35.899Z,10.40
2022-09-14T12:55:20.928Z,11.80
2022-09-14T12:57:54.612Z,16.20
2022-09-14T13:00:23.121Z,14.57
2022-09-14T13:03:27.012Z,12.77
2022-09-14T13:05:55.567Z,17.52
2022-09-14T13:08:25.620Z,11.38
2022-09-14T13:10:54.181Z,15.85
2022-09-14T13:13:26.954Z,13.27
2022-09-14T13:15:59.269Z,13.45
2022-09-14T13:18:34.771Z,12.45
2022-09-14T13:21:05.458Z,15.52
2022-09-14T13:23:39.088Z,18.23
2022-09-14T13:26:13.054Z,16.13
2022-09-14T13:28:44.399Z,9.07
2022-09-14T13:31:15.798Z,10.20
2022-09-14T13:33:51.182Z,14.70
2022-09-14T13:36:21.896Z,13.25
2022-09-14T13:38:50.661Z,12.45
2022-09-14T13:41:23.018Z,15.45
2022-09-14T13:43:55.522Z,11.88
2022-09-14T13:46:25.438Z,8.88
2022-09-14T13:48:56.028Z,11.75
2022-09-14T13:51:27.289Z,10.05
2022-09-14T13:53:57.850Z,12.32
2022-09-14T13:56:31.579Z,13.05
2022-09-14T13:59:21.698Z,19.40
2022-09-14T14:01:57.145Z,9.48
2022-09-14T14:04:35.219Z,9.02
2022-09-14T14:07:08.532Z,9.30
2022-09-14T14:09:46.222Z,14.85
2022-09-14T14:12:24.847Z,10.90
2022-09-14T14:14:57.961Z,14.02
2022-09-14T14:17:34.618Z,15.93
2022-09-14T14:20:31.864Z,9.82
2022-09-14T14:23:02.996Z,15.05
2022-09-14T14:25:33.613Z,11.13
2022-09-14T14:28:03.689Z,8.32
2022-09-14T14:30:34.994Z,10.80
2022-09-14T14:33:03.377Z,13.65
2022-09-14T14:35:33.009Z,14.10
2022-09-14T14:38:01.346Z,14.68
2022-09-14T14:40:30.105Z,14.35
2022-09-14T14:42:59.637Z,14.82
2022-09-14T14:45:28.882Z,11.63
2022-09-14T14:48:00.075Z,19.48
2022-09-14T14:50:30.312Z,16.98
2022-09-14T14:53:00.928Z,11.88
2022-09-14T14:55:31.939Z,11.60
2022-09-14T14:58:03.207Z,11.73
2022-09-14T15:00:33.838Z,18.05
2022-09-14T15:03:02.482Z,13.07
2022-09-14T15:05:31.208Z,11.63
2022-09-14T15:08:01.034Z,14.45
2022-09-14T15:10:30.702Z,11.90
2022-09-14T15:12:58.990Z,12.88
2022-09-14T15:15:27.768Z,14.15
2022-09-14T15:17:56.191Z,11.52
2022-09-14T15:20:24.496Z,13.18
2022-09-14T15:22:53.251Z,14.93
2022-09-14T15:25:23.515Z,14.93
2022-09-14T15:27:51.700Z,13.68
2022-09-14T15:30:20.029Z,14.85
2022-09-14T15:32:48.690Z,14.75
2022-09-14T15:35:17.209Z,15.68
2022-09-14T15:37:45.525Z,13.70
2022-09-14T15:40:14.134Z,9.10
2022-09-14T15:42:43.815Z,14.95
2022-09-14T15:45:13.775Z,11.00
2022-09-14T15:47:43.888Z,13.52
2022-09-14T15:50:12.794Z,12.32
2022-09-14T15:52:41.581Z,10.70
2022-09-14T15:55:12.237Z,17.83
2022-09-14T15:57:40.795Z,9.15
2022-09-14T16:00:13.808Z,17.50
2022-09-14T16:02:42.377Z,18.70
2022-09-14T16:05:11.094Z,16.48
2022-09-14T16:07:39.465Z,11.52
2022-09-14T16:10:08.909Z,21.27
2022-09-14T16:12:37.150Z,15.95
2022-09-14T16:15:05.879Z,14.00
2022-09-14T16:17:35.468Z,19.85
2022-09-14T16:20:04.868Z,17.58
2022-09-14T16:22:33.776Z,20.52
2022-09-14T16:25:02.038Z,14.13
2022-09-14T16:27:30.445Z,14.38
2022-09-14T16:29:58.718Z,16.17
2022-09-14T16:32:27.614Z,15.55
2022-09-14T16:34:57.289Z,15.50
2022-09-14T16:37:26.776Z,21.48
2022-09-14T16:39:55.306Z,15.00
2022-09-14T16:42:23.700Z,18.15
2022-09-14T16:44:51.982Z,14.15
2022-09-14T16:47:20.253Z,15.75
2022-09-14T16:49:48.477Z,11.18
2022-09-14T16:52:18.074Z,13.65
2022-09-14T16:54:46.232Z,17.05
2022-09-14T16:57:14.442Z,17.25
2022-09-14T16:59:42.824Z,15.85
2022-09-14T17:02:11.792Z,14.95
2022-09-14T17:04:40.948Z,19.25
2022-09-14T17:07:10.039Z,16.02
2022-09-14T17:09:41.271Z,17.02
2022-09-14T17:12:09.503Z,16.27
2022-09-14T17:14:37.719Z,15.60
2022-09-14T17:17:06.082Z,18.13
2022-09-14T17:19:35.466Z,15.30
2022-09-14T17:22:04.648Z,20.88
2022-09-14T17:24:32.994Z,15.75
2022-09-14T17:27:02.975Z,14.57
2022-09-14T17:29:36.943Z,16.20
2022-09-14T17:32:05.385Z,18.70
2022-09-14T17:34:33.664Z,14.05
2022-09-14T17:37:01.963Z,15.60
2022-09-14T17:39:30.200Z,18.40
2022-09-14T17:42:00.493Z,16.05
2022-09-14T17:44:31.904Z,17.23
2022-09-14T17:47:00.911Z,22.13
2022-09-14T17:49:34.911Z,17.05
2022-09-14T17:52:03.792Z,23.23
2022-09-14T17:54:32.085Z,18.65
2022-09-14T17:57:00.334Z,22.13
2022-09-14T17:59:29.979Z,17.27
2022-09-14T18:01:58.784Z,13.65
2022-09-14T18:04:27.106Z,16.20
2022-09-14T18:06:55.340Z,21.58
2022-09-14T18:09:25.284Z,19.15
2022-09-14T18:11:57.217Z,14.93
2022-09-14T18:14:26.173Z,18.25
2022-09-14T18:16:55.772Z,16.33
2022-09-14T18:19:23.980Z,14.13
2022-09-14T18:21:52.957Z,15.25
2022-09-14T18:24:21.742Z,11.02
2022-09-14T18:26:52.708Z,19.05
2022-09-14T18:29:23.259Z,21.30
2022-09-14T18:32:07.164Z,15.75
2022-09-14T18:34:35.391Z,13.82
2022-09-14T18:37:03.655Z,14.40
2022-09-14T18:39:31.946Z,15.02
2022-09-14T18:42:00.177Z,12.25
2022-09-14T18:44:28.732Z,13.77
2022-09-14T18:46:57.115Z,14.65
2022-09-14T18:49:27.103Z,15.10
2022-09-14T18:51:55.293Z,12.63
2022-09-14T18:54:27.629Z,14.45
2022-09-14T18:56:56.380Z,12.57
2022-09-14T18:59:24.677Z,12.93
2022-09-14T19:01:53.007Z,11.60
2022-09-14T19:04:21.196Z,16.08
2022-09-14T19:06:51.139Z,9.73
2022-09-14T19:09:19.443Z,11.65
2022-09-14T19:11:47.696Z,12.55
2022-09-14T19:14:17.542Z,12.68
2022-09-14T19:16:45.915Z,12.98
2022-09-14T19:19:17.273Z,15.73
2022-09-14T19:21:46.096Z,11.10
2022-09-14T19:24:18.369Z,16.88
2022-09-14T19:26:48.397Z,9.35
2022-09-14T19:29:24.720Z,14.65
2022-09-14T19:31:54.185Z,13.68
2022-09-14T19:34:25.606Z,10.45
2022-09-14T19:36:54.916Z,11.93
2022-09-14T19:39:25.948Z,8.85
2022-09-14T19:41:54.795Z,9.40
2022-09-14T19:44:23.597Z,11.55
2022-09-14T19:46:52.540Z,10.55
2022-09-14T19:49:22.624Z,13.23
2022-09-14T19:51:51.233Z,10.93
2022-09-14T19:54:19.752Z,11.25
2022-09-14T19:56:49.516Z,12.25
2022-09-14T19:59:17.868Z,19.77
2022-09-14T20:01:46.713Z,15.25
2022-09-14T20:04:15.795Z,15.73
2022-09-14T20:06:46.240Z,16.88
2022-09-14T20:09:16.582Z,17.58
2022-09-14T20:11:46.582Z,14.82
2022-09-14T20:14:18.102Z,14.05
2022-09-14T20:16:48.656Z,12.45
2022-09-14T20:19:18.392Z,13.38
2022-09-14T20:21:48.214Z,13.65
2022-09-14T20:24:19.594Z,9.55
2022-09-14T20:26:52.174Z,10.10
2022-09-14T20:29:23.996Z,7.47
2022-09-14T20:31:58.198Z,7.20
2022-09-14T20:34:27.240Z,9.15
2022-09-14T20:36:56.096Z,7.10
2022-09-14T20:39:25.665Z,10.50
2022-09-14T20:41:54.479Z,8.43
2022-09-14T20:44:24.264Z,5.57
2022-09-14T20:46:52.750Z,4.07
2022-09-14T20:49:22.918Z,4.30
2022-09-14T20:51:52.757Z,8.20
2022-09-14T20:54:21.488Z,4.13
2022-09-14T20:56:49.716Z,2.42
2022-09-14T20:59:19.840Z,6.00
2022-09-14T21:01:50.933Z,5.55
2022-09-14T21:04:21.161Z,6.57
2022-09-14T21:06:52.559Z,11.25
2022-09-14T21:09:22.009Z,5.32
2022-09-14T21:11:50.317Z,2.95
2022-09-14T21:14:20.835Z,6.05
2022-09-14T21:16:55.155Z,4.28
2022-09-14T21:19:25.141Z,2.88
2022-09-14T21:21:53.730Z,5.05
2022-09-14T21:24:23.446Z,2.00
2022-09-14T21:26:52.125Z,5.30
2022-09-14T21:29:23.921Z,4.32
2022-09-14T21:31:54.385Z,2.17
2022-09-14T21:34:22.968Z,2.17
2022-09-14T21:36:52.594Z,2.17
2022-09-14T21:39:23.304Z,4.57
2022-09-14T21:41:58.097Z,4.45
2022-09-14T21:44:30.839Z,4.03
2022-09-14T21:47:00.740Z,4.13
2022-09-14T21:49:29.374Z,3.30
2022-09-14T21:51:57.663Z,3.63
2022-09-14T21:54:26.219Z,2.07
2022-09-14T21:56:54.882Z,4.15
2022-09-14T21:59:24.196Z,3.67
2022-09-14T22:01:52.925Z,1.30
2022-09-14T22:04:25.205Z,4.95
2022-09-14T22:06:54.081Z,3.23
2022-09-14T22:09:24.789Z,3.83
2022-09-14T22:11:53.814Z,4.60
2022-09-14T22:14:24.430Z,3.67
2022-09-14T22:16:52.958Z,3.70
2022-09-14T22:19:24.458Z,5.75
2022-09-14T22:21:53.322Z,4.20
2022-09-14T22:24:23.711Z,4.77
2022-09-14T22:26:51.963Z,4.23
2022-09-14T22:29:22.309Z,1.80
2022-09-14T22:31:50.781Z,2.60
2022-09-14T22:34:19.256Z,6.28
2022-09-14T22:36:49.139Z,2.00
2022-09-14T22:39:17.468Z,5.22
2022-09-14T22:41:45.785Z,1.55
2022-09-14T22:44:14.331Z,3.47
2022-09-14T22:46:43.310Z,3.63
2022-09-14T22:49:11.992Z,3.88
2022-09-14T22:51:40.961Z,3.13
2022-09-14T22:54:10.631Z,4.88
2022-09-14T22:56:40.305Z,2.38
2022-09-14T22:59:10.583Z,4.90
2022-09-14T23:01:41.911Z,2.05
2022-09-14T23:04:12.943Z,4.53
2022-09-14T23:06:43.616Z,2.17
2022-09-14T23:09:16.885Z,2.40
2022-09-14T23:11:45.776Z,3.95
2022-09-14T23:14:14.634Z,1.50
2022-09-14T23:16:45.021Z,1.60
2022-09-14T23:19:16.627Z,2.08
2022-09-14T23:21:45.273Z,2.87
2022-09-14T23:24:15.030Z,1.35
2022-09-14T23:26:43.290Z,2.67
2022-09-14T23:29:15.883Z,6.07
2022-09-14T23:31:44.526Z,2.27
2022-09-14T23:34:12.751Z,2.40
2022-09-14T23:36:41.167Z,4.10
2022-09-14T23:39:09.424Z,4.47
2022-09-14T23:41:40.089Z,1.97
2022-09-14T23:44:08.395Z,1.43
2022-09-14T23:46:36.752Z,4.53
2022-09-14T23:49:05.131Z,4.40
2022-09-14T23:51:33.500Z,4.47
2022-09-14T23:54:01.740Z,4.10
2022-09-14T23:56:30.188Z,3.17
2022-09-14T23:59:00.292Z,1.30
